sensor_id;sensor_type;location;lat;lon;timestamp;P1;durP1;ratioP1;P2;durP2;ratioP2
5682;SDS011;2864;49.220;8.654;2023-04-24T00:00:42;1.97;;;1.63;;
5682;SDS011;2864;49.220;8.654;2023-04-24T00:03:10;3.00;;;1.50;;
5682;SDS011;2864;49.220;8.654;2023-04-24T00:05:36;3.97;;;1.53;;
5682;SDS011;2864;49.220;8.654;2023-04-24T00:08:02;2.83;;;1.47;;
5682;SDS011;2864;49.220;8.654;2023-04-24T00:10:28;2.50;;;1.40;;
5682;SDS011;2864;49.220;8.654;2023-04-24T00:12:53;3.33;;;1.53;;
5682;SDS011;2864;49.220;8.654;2023-04-24T00:15:19;2.20;;;1.50;;
5682;SDS011;2864;49.220;8.654;2023-04-24T00:17:45;2.50;;;1.50;;
5682;SDS011;2864;49.220;8.654;2023-04-24T00:20:12;1.30;;;1.20;;
5682;SDS011;2864;49.220;8.654;2023-04-24T00:22:39;1.47;;;1.37;;
5682;SDS011;2864;49.220;8.654;2023-04-24T00:25:05;1.97;;;1.33;;
5682;SDS011;2864;49.220;8.654;2023-04-24T00:27:31;2.20;;;1.60;;
5682;SDS011;2864;49.220;8.654;2023-04-24T00:29:57;1.90;;;1.20;;
5682;SDS011;2864;49.220;8.654;2023-04-24T00:32:23;3.63;;;1.67;;
5682;SDS011;2864;49.220;8.654;2023-04-24T00:34:49;1.87;;;1.47;;
5682;SDS011;2864;49.220;8.654;2023-04-24T00:37:15;1.80;;;1.30;;
5682;SDS011;2864;49.220;8.654;2023-04-24T00:39:41;1.73;;;1.53;;
5682;SDS011;2864;49.220;8.654;2023-04-24T00:42:07;1.47;;;1.37;;
5682;SDS011;2864;49.220;8.654;2023-04-24T00:44:33;1.77;;;1.30;;
5682;SDS011;2864;49.220;8.654;2023-04-24T00:47:00;2.67;;;1.37;;
5682;SDS011;2864;49.220;8.654;2023-04-24T00:49:26;1.60;;;1.50;;
5682;SDS011;2864;49.220;8.654;2023-04-24T00:51:52;2.90;;;1.70;;
5682;SDS011;2864;49.220;8.654;2023-04-24T00:54:19;2.10;;;1.50;;
5682;SDS011;2864;49.220;8.654;2023-04-24T00:56:45;2.63;;;1.47;;
5682;SDS011;2864;49.220;8.654;2023-04-24T00:59:11;3.50;;;2.00;;
5682;SDS011;2864;49.220;8.654;2023-04-24T01:01:37;1.63;;;1.43;;
5682;SDS011;2864;49.220;8.654;2023-04-24T01:04:06;2.20;;;1.70;;
5682;SDS011;2864;49.220;8.654;2023-04-24T01:06:33;1.67;;;1.50;;
5682;SDS011;2864;49.220;8.654;2023-04-24T01:08:59;1.93;;;1.30;;
5682;SDS011;2864;49.220;8.654;2023-04-24T01:11:25;1.67;;;1.40;;
5682;SDS011;2864;49.220;8.654;2023-04-24T01:13:51;2.20;;;1.50;;
5682;SDS011;2864;49.220;8.654;2023-04-24T01:16:18;2.07;;;1.53;;
5682;SDS011;2864;49.220;8.654;2023-04-24T01:18:45;2.87;;;1.40;;
5682;SDS011;2864;49.220;8.654;2023-04-24T01:21:13;2.87;;;1.40;;
5682;SDS011;2864;49.220;8.654;2023-04-24T01:23:39;1.63;;;1.40;;
5682;SDS011;2864;49.220;8.654;2023-04-24T01:26:05;1.80;;;1.53;;
5682;SDS011;2864;49.220;8.654;2023-04-24T01:28:31;2.53;;;1.27;;
5682;SDS011;2864;49.220;8.654;2023-04-24T01:30:57;3.93;;;1.40;;
5682;SDS011;2864;49.220;8.654;2023-04-24T01:33:24;1.80;;;1.40;;
5682;SDS011;2864;49.220;8.654;2023-04-24T01:35:50;2.03;;;1.40;;
5682;SDS011;2864;49.220;8.654;2023-04-24T01:38:16;2.13;;;1.50;;
5682;SDS011;2864;49.220;8.654;2023-04-24T01:40:42;2.93;;;1.40;;
5682;SDS011;2864;49.220;8.654;2023-04-24T01:43:08;1.60;;;1.47;;
5682;SDS011;2864;49.220;8.654;2023-04-24T01:45:34;2.03;;;1.50;;
5682;SDS011;2864;49.220;8.654;2023-04-24T01:48:00;1.70;;;1.40;;
5682;SDS011;2864;49.220;8.654;2023-04-24T01:50:26;3.10;;;1.43;;
5682;SDS011;2864;49.220;8.654;2023-04-24T01:52:52;4.10;;;1.40;;
5682;SDS011;2864;49.220;8.654;2023-04-24T01:55:18;1.60;;;1.40;;
5682;SDS011;2864;49.220;8.654;2023-04-24T01:57:44;1.43;;;1.20;;
5682;SDS011;2864;49.220;8.654;2023-04-24T02:00:10;3.90;;;1.70;;
5682;SDS011;2864;49.220;8.654;2023-04-24T02:02:37;2.80;;;1.50;;
5682;SDS011;2864;49.220;8.654;2023-04-24T02:05:05;1.40;;;1.30;;
5682;SDS011;2864;49.220;8.654;2023-04-24T02:07:31;4.37;;;1.60;;
5682;SDS011;2864;49.220;8.654;2023-04-24T02:09:57;4.40;;;1.37;;
5682;SDS011;2864;49.220;8.654;2023-04-24T02:12:23;1.80;;;1.70;;
5682;SDS011;2864;49.220;8.654;2023-04-24T02:14:49;3.43;;;1.80;;
5682;SDS011;2864;49.220;8.654;2023-04-24T02:17:15;3.23;;;1.50;;
5682;SDS011;2864;49.220;8.654;2023-04-24T02:19:42;1.80;;;1.20;;
5682;SDS011;2864;49.220;8.654;2023-04-24T02:22:08;3.17;;;1.60;;
5682;SDS011;2864;49.220;8.654;2023-04-24T02:24:35;2.37;;;1.50;;
5682;SDS011;2864;49.220;8.654;2023-04-24T02:27:01;4.43;;;1.60;;
5682;SDS011;2864;49.220;8.654;2023-04-24T02:29:27;4.10;;;1.43;;
5682;SDS011;2864;49.220;8.654;2023-04-24T02:31:53;2.13;;;1.53;;
5682;SDS011;2864;49.220;8.654;2023-04-24T02:34:19;1.40;;;1.30;;
5682;SDS011;2864;49.220;8.654;2023-04-24T02:36:45;1.50;;;1.40;;
5682;SDS011;2864;49.220;8.654;2023-04-24T02:39:11;1.70;;;1.53;;
5682;SDS011;2864;49.220;8.654;2023-04-24T02:41:38;2.47;;;1.60;;
5682;SDS011;2864;49.220;8.654;2023-04-24T02:44:04;1.70;;;1.60;;
5682;SDS011;2864;49.220;8.654;2023-04-24T02:46:30;3.03;;;1.50;;
5682;SDS011;2864;49.220;8.654;2023-04-24T02:48:56;2.23;;;1.40;;
5682;SDS011;2864;49.220;8.654;2023-04-24T02:51:22;3.67;;;1.83;;
5682;SDS011;2864;49.220;8.654;2023-04-24T02:53:48;3.13;;;1.60;;
5682;SDS011;2864;49.220;8.654;2023-04-24T02:56:14;2.73;;;1.53;;
5682;SDS011;2864;49.220;8.654;2023-04-24T02:58:40;3.07;;;1.60;;
5682;SDS011;2864;49.220;8.654;2023-04-24T03:01:07;2.40;;;1.40;;
5682;SDS011;2864;49.220;8.654;2023-04-24T03:03:34;3.87;;;1.90;;
5682;SDS011;2864;49.220;8.654;2023-04-24T03:06:00;4.67;;;1.57;;
5682;SDS011;2864;49.220;8.654;2023-04-24T03:08:26;3.17;;;1.83;;
5682;SDS011;2864;49.220;8.654;2023-04-24T03:10:52;4.07;;;1.60;;
5682;SDS011;2864;49.220;8.654;2023-04-24T03:13:18;1.60;;;1.50;;
5682;SDS011;2864;49.220;8.654;2023-04-24T03:15:44;3.27;;;1.50;;
5682;SDS011;2864;49.220;8.654;2023-04-24T03:18:11;1.67;;;1.37;;
5682;SDS011;2864;49.220;8.654;2023-04-24T03:20:37;1.70;;;1.60;;
5682;SDS011;2864;49.220;8.654;2023-04-24T03:23:03;2.20;;;1.60;;
5682;SDS011;2864;49.220;8.654;2023-04-24T03:25:29;4.67;;;1.67;;
5682;SDS011;2864;49.220;8.654;2023-04-24T03:27:55;3.67;;;1.77;;
5682;SDS011;2864;49.220;8.654;2023-04-24T03:30:21;3.97;;;1.97;;
5682;SDS011;2864;49.220;8.654;2023-04-24T03:32:47;3.73;;;2.17;;
5682;SDS011;2864;49.220;8.654;2023-04-24T03:35:13;3.80;;;2.30;;
5682;SDS011;2864;49.220;8.654;2023-04-24T03:37:39;3.33;;;2.40;;
5682;SDS011;2864;49.220;8.654;2023-04-24T03:40:05;3.53;;;2.30;;
5682;SDS011;2864;49.220;8.654;2023-04-24T03:42:31;2.90;;;2.27;;
5682;SDS011;2864;49.220;8.654;2023-04-24T03:44:57;3.57;;;2.43;;
5682;SDS011;2864;49.220;8.654;2023-04-24T03:47:23;3.17;;;2.30;;
5682;SDS011;2864;49.220;8.654;2023-04-24T03:49:49;2.97;;;2.60;;
5682;SDS011;2864;49.220;8.654;2023-04-24T03:52:16;7.30;;;2.70;;
5682;SDS011;2864;49.220;8.654;2023-04-24T03:54:41;3.90;;;2.13;;
5682;SDS011;2864;49.220;8.654;2023-04-24T03:57:07;5.53;;;2.70;;
5682;SDS011;2864;49.220;8.654;2023-04-24T03:59:33;3.27;;;2.80;;
5682;SDS011;2864;49.220;8.654;2023-04-24T04:01:59;4.70;;;2.97;;
5682;SDS011;2864;49.220;8.654;2023-04-24T04:04:25;5.17;;;3.20;;
5682;SDS011;2864;49.220;8.654;2023-04-24T04:06:51;6.23;;;3.53;;
5682;SDS011;2864;49.220;8.654;2023-04-24T04:09:18;3.80;;;3.23;;
5682;SDS011;2864;49.220;8.654;2023-04-24T04:11:44;3.23;;;2.80;;
5682;SDS011;2864;49.220;8.654;2023-04-24T04:14:10;4.63;;;3.20;;
5682;SDS011;2864;49.220;8.654;2023-04-24T04:16:36;3.63;;;2.67;;
5682;SDS011;2864;49.220;8.654;2023-04-24T04:19:02;4.03;;;2.87;;
5682;SDS011;2864;49.220;8.654;2023-04-24T04:21:28;5.67;;;3.40;;
5682;SDS011;2864;49.220;8.654;2023-04-24T04:23:56;3.77;;;3.07;;
5682;SDS011;2864;49.220;8.654;2023-04-24T04:26:22;5.83;;;3.40;;
5682;SDS011;2864;49.220;8.654;2023-04-24T04:28:50;3.73;;;3.10;;
5682;SDS011;2864;49.220;8.654;2023-04-24T04:31:16;6.00;;;3.10;;
5682;SDS011;2864;49.220;8.654;2023-04-24T04:33:42;5.27;;;3.43;;
5682;SDS011;2864;49.220;8.654;2023-04-24T04:36:08;3.73;;;3.13;;
5682;SDS011;2864;49.220;8.654;2023-04-24T04:38:34;4.43;;;3.33;;
5682;SDS011;2864;49.220;8.654;2023-04-24T04:41:03;4.47;;;3.13;;
5682;SDS011;2864;49.220;8.654;2023-04-24T04:43:29;4.17;;;3.53;;
5682;SDS011;2864;49.220;8.654;2023-04-24T04:45:56;3.97;;;3.43;;
5682;SDS011;2864;49.220;8.654;2023-04-24T04:48:23;4.57;;;3.33;;
5682;SDS011;2864;49.220;8.654;2023-04-24T04:50:49;5.37;;;4.17;;
5682;SDS011;2864;49.220;8.654;2023-04-24T04:53:15;5.03;;;3.40;;
5682;SDS011;2864;49.220;8.654;2023-04-24T04:55:41;7.67;;;3.80;;
5682;SDS011;2864;49.220;8.654;2023-04-24T04:58:07;6.40;;;3.60;;
5682;SDS011;2864;49.220;8.654;2023-04-24T05:00:33;4.53;;;3.80;;
5682;SDS011;2864;49.220;8.654;2023-04-24T05:03:02;5.47;;;3.93;;
5682;SDS011;2864;49.220;8.654;2023-04-24T05:05:28;5.30;;;3.77;;
5682;SDS011;2864;49.220;8.654;2023-04-24T05:07:54;4.93;;;4.20;;
5682;SDS011;2864;49.220;8.654;2023-04-24T05:10:20;5.93;;;3.60;;
5682;SDS011;2864;49.220;8.654;2023-04-24T05:12:46;4.93;;;3.90;;
5682;SDS011;2864;49.220;8.654;2023-04-24T05:15:12;6.17;;;4.70;;
5682;SDS011;2864;49.220;8.654;2023-04-24T05:17:38;5.13;;;3.73;;
5682;SDS011;2864;49.220;8.654;2023-04-24T05:20:05;5.87;;;4.03;;
5682;SDS011;2864;49.220;8.654;2023-04-24T05:22:32;4.10;;;3.67;;
5682;SDS011;2864;49.220;8.654;2023-04-24T05:24:58;4.13;;;3.73;;
5682;SDS011;2864;49.220;8.654;2023-04-24T05:27:24;5.27;;;4.07;;
5682;SDS011;2864;49.220;8.654;2023-04-24T05:29:50;6.83;;;3.30;;
5682;SDS011;2864;49.220;8.654;2023-04-24T05:32:16;5.37;;;3.23;;
5682;SDS011;2864;49.220;8.654;2023-04-24T05:34:42;5.10;;;3.63;;
5682;SDS011;2864;49.220;8.654;2023-04-24T05:37:08;3.37;;;2.97;;
5682;SDS011;2864;49.220;8.654;2023-04-24T05:39:35;3.87;;;3.20;;
5682;SDS011;2864;49.220;8.654;2023-04-24T05:42:01;3.63;;;3.00;;
5682;SDS011;2864;49.220;8.654;2023-04-24T05:44:29;3.30;;;3.00;;
5682;SDS011;2864;49.220;8.654;2023-04-24T05:46:55;5.83;;;3.40;;
5682;SDS011;2864;49.220;8.654;2023-04-24T05:49:21;5.73;;;3.20;;
5682;SDS011;2864;49.220;8.654;2023-04-24T05:51:47;4.30;;;3.20;;
5682;SDS011;2864;49.220;8.654;2023-04-24T05:54:13;3.40;;;3.10;;
5682;SDS011;2864;49.220;8.654;2023-04-24T05:56:39;6.00;;;3.40;;
5682;SDS011;2864;49.220;8.654;2023-04-24T05:59:05;5.20;;;3.30;;
5682;SDS011;2864;49.220;8.654;2023-04-24T06:01:32;3.67;;;3.37;;
5682;SDS011;2864;49.220;8.654;2023-04-24T06:03:58;6.03;;;3.13;;
5682;SDS011;2864;49.220;8.654;2023-04-24T06:06:25;4.00;;;3.40;;
5682;SDS011;2864;49.220;8.654;2023-04-24T06:08:52;4.57;;;3.43;;
5682;SDS011;2864;49.220;8.654;2023-04-24T06:11:18;3.23;;;2.93;;
5682;SDS011;2864;49.220;8.654;2023-04-24T06:13:44;5.00;;;3.20;;
5682;SDS011;2864;49.220;8.654;2023-04-24T06:16:10;3.37;;;3.07;;
5682;SDS011;2864;49.220;8.654;2023-04-24T06:18:36;3.87;;;3.00;;
5682;SDS011;2864;49.220;8.654;2023-04-24T06:21:02;4.67;;;3.10;;
5682;SDS011;2864;49.220;8.654;2023-04-24T06:23:28;3.93;;;3.20;;
5682;SDS011;2864;49.220;8.654;2023-04-24T06:25:54;3.73;;;3.20;;
5682;SDS011;2864;49.220;8.654;2023-04-24T06:28:20;5.67;;;3.00;;
5682;SDS011;2864;49.220;8.654;2023-04-24T06:30:46;4.30;;;3.30;;
5682;SDS011;2864;49.220;8.654;2023-04-24T06:33:12;3.90;;;3.10;;
5682;SDS011;2864;49.220;8.654;2023-04-24T06:35:38;5.80;;;3.10;;
5682;SDS011;2864;49.220;8.654;2023-04-24T06:38:04;3.20;;;2.90;;
5682;SDS011;2864;49.220;8.654;2023-04-24T06:40:30;3.60;;;2.70;;
5682;SDS011;2864;49.220;8.654;2023-04-24T06:42:56;2.60;;;2.40;;
5682;SDS011;2864;49.220;8.654;2023-04-24T06:45:24;3.90;;;2.60;;
5682;SDS011;2864;49.220;8.654;2023-04-24T06:47:50;5.17;;;2.80;;
5682;SDS011;2864;49.220;8.654;2023-04-24T06:50:17;2.67;;;2.40;;
5682;SDS011;2864;49.220;8.654;2023-04-24T06:52:43;2.80;;;2.53;;
5682;SDS011;2864;49.220;8.654;2023-04-24T06:55:09;4.03;;;2.83;;
5682;SDS011;2864;49.220;8.654;2023-04-24T06:57:36;4.77;;;2.77;;
5682;SDS011;2864;49.220;8.654;2023-04-24T07:00:02;2.50;;;2.30;;
5682;SDS011;2864;49.220;8.654;2023-04-24T07:02:30;3.17;;;2.30;;
5682;SDS011;2864;49.220;8.654;2023-04-24T07:04:55;3.37;;;2.50;;
5682;SDS011;2864;49.220;8.654;2023-04-24T07:07:21;3.23;;;2.20;;
5682;SDS011;2864;49.220;8.654;2023-04-24T07:09:48;3.17;;;2.23;;
5682;SDS011;2864;49.220;8.654;2023-04-24T07:12:15;5.27;;;2.37;;
5682;SDS011;2864;49.220;8.654;2023-04-24T07:14:42;4.63;;;2.47;;
5682;SDS011;2864;49.220;8.654;2023-04-24T07:17:08;3.30;;;2.07;;
5682;SDS011;2864;49.220;8.654;2023-04-24T07:19:34;3.03;;;2.30;;
5682;SDS011;2864;49.220;8.654;2023-04-24T07:22:02;5.87;;;2.30;;
5682;SDS011;2864;49.220;8.654;2023-04-24T07:24:29;5.50;;;2.17;;
5682;SDS011;2864;49.220;8.654;2023-04-24T07:26:57;1.97;;;1.80;;
5682;SDS011;2864;49.220;8.654;2023-04-24T07:29:23;2.13;;;1.93;;
5682;SDS011;2864;49.220;8.654;2023-04-24T07:31:48;5.10;;;2.40;;
5682;SDS011;2864;49.220;8.654;2023-04-24T07:34:14;5.13;;;2.67;;
5682;SDS011;2864;49.220;8.654;2023-04-24T07:36:40;3.80;;;1.97;;
5682;SDS011;2864;49.220;8.654;2023-04-24T07:39:07;2.40;;;2.00;;
5682;SDS011;2864;49.220;8.654;2023-04-24T07:41:33;2.53;;;1.70;;
5682;SDS011;2864;49.220;8.654;2023-04-24T07:43:59;2.97;;;1.93;;
5682;SDS011;2864;49.220;8.654;2023-04-24T07:46:25;1.70;;;1.60;;
5682;SDS011;2864;49.220;8.654;2023-04-24T07:48:54;2.30;;;1.53;;
5682;SDS011;2864;49.220;8.654;2023-04-24T07:51:20;1.93;;;1.77;;
5682;SDS011;2864;49.220;8.654;2023-04-24T07:53:46;1.80;;;1.70;;
5682;SDS011;2864;49.220;8.654;2023-04-24T07:56:12;1.90;;;1.70;;
5682;SDS011;2864;49.220;8.654;2023-04-24T07:58:38;2.30;;;1.87;;
5682;SDS011;2864;49.220;8.654;2023-04-24T08:01:04;2.93;;;1.97;;
5682;SDS011;2864;49.220;8.654;2023-04-24T08:03:30;2.10;;;1.90;;
5682;SDS011;2864;49.220;8.654;2023-04-24T08:05:56;2.13;;;2.00;;
5682;SDS011;2864;49.220;8.654;2023-04-24T08:08:22;2.20;;;2.00;;
5682;SDS011;2864;49.220;8.654;2023-04-24T08:10:49;3.37;;;2.10;;
5682;SDS011;2864;49.220;8.654;2023-04-24T08:13:15;1.83;;;1.73;;
5682;SDS011;2864;49.220;8.654;2023-04-24T08:15:41;2.47;;;1.80;;
5682;SDS011;2864;49.220;8.654;2023-04-24T08:18:07;2.73;;;1.83;;
5682;SDS011;2864;49.220;8.654;2023-04-24T08:20:33;3.87;;;1.90;;
5682;SDS011;2864;49.220;8.654;2023-04-24T08:22:59;1.83;;;1.73;;
5682;SDS011;2864;49.220;8.654;2023-04-24T08:25:25;2.23;;;1.90;;
5682;SDS011;2864;49.220;8.654;2023-04-24T08:27:51;2.43;;;1.93;;
5682;SDS011;2864;49.220;8.654;2023-04-24T08:30:17;2.10;;;1.70;;
5682;SDS011;2864;49.220;8.654;2023-04-24T08:32:43;2.10;;;1.83;;
5682;SDS011;2864;49.220;8.654;2023-04-24T08:35:10;1.80;;;1.70;;
5682;SDS011;2864;49.220;8.654;2023-04-24T08:37:36;2.23;;;1.90;;
5682;SDS011;2864;49.220;8.654;2023-04-24T08:43:05;1.80;;;1.60;;
5682;SDS011;2864;49.220;8.654;2023-04-24T08:45:32;2.67;;;1.60;;
5682;SDS011;2864;49.220;8.654;2023-04-24T08:47:58;2.77;;;1.83;;
5682;SDS011;2864;49.220;8.654;2023-04-24T08:50:26;2.57;;;1.87;;
5682;SDS011;2864;49.220;8.654;2023-04-24T08:52:52;1.97;;;1.73;;
5682;SDS011;2864;49.220;8.654;2023-04-24T08:55:19;2.70;;;2.00;;
5682;SDS011;2864;49.220;8.654;2023-04-24T08:57:45;1.87;;;1.60;;
5682;SDS011;2864;49.220;8.654;2023-04-24T09:00:16;1.93;;;1.60;;
5682;SDS011;2864;49.220;8.654;2023-04-24T09:02:42;2.90;;;1.67;;
5682;SDS011;2864;49.220;8.654;2023-04-24T09:05:08;3.87;;;1.67;;
5682;SDS011;2864;49.220;8.654;2023-04-24T09:07:35;2.53;;;1.63;;
5682;SDS011;2864;49.220;8.654;2023-04-24T09:10:03;2.70;;;1.63;;
5682;SDS011;2864;49.220;8.654;2023-04-24T09:12:30;4.23;;;1.70;;
5682;SDS011;2864;49.220;8.654;2023-04-24T09:14:56;2.40;;;1.60;;
5682;SDS011;2864;49.220;8.654;2023-04-24T09:17:22;2.13;;;1.80;;
5682;SDS011;2864;49.220;8.654;2023-04-24T09:19:51;3.07;;;2.13;;
5682;SDS011;2864;49.220;8.654;2023-04-24T09:22:17;2.13;;;1.80;;
5682;SDS011;2864;49.220;8.654;2023-04-24T09:24:44;5.50;;;2.00;;
5682;SDS011;2864;49.220;8.654;2023-04-24T09:27:10;2.27;;;1.70;;
5682;SDS011;2864;49.220;8.654;2023-04-24T09:29:53;2.87;;;1.70;;
5682;SDS011;2864;49.220;8.654;2023-04-24T09:32:20;3.67;;;1.80;;
5682;SDS011;2864;49.220;8.654;2023-04-24T09:34:46;2.07;;;1.70;;
5682;SDS011;2864;49.220;8.654;2023-04-24T09:37:23;2.93;;;1.80;;
5682;SDS011;2864;49.220;8.654;2023-04-24T09:40:08;5.83;;;2.20;;
5682;SDS011;2864;49.220;8.654;2023-04-24T09:42:36;2.93;;;1.90;;
5682;SDS011;2864;49.220;8.654;2023-04-24T09:45:02;2.67;;;2.20;;
5682;SDS011;2864;49.220;8.654;2023-04-24T09:47:35;1.90;;;1.80;;
5682;SDS011;2864;49.220;8.654;2023-04-24T09:50:08;3.43;;;2.37;;
5682;SDS011;2864;49.220;8.654;2023-04-24T09:52:34;3.97;;;2.30;;
5682;SDS011;2864;49.220;8.654;2023-04-24T09:55:00;2.73;;;2.30;;
5682;SDS011;2864;49.220;8.654;2023-04-24T09:57:26;3.00;;;2.27;;
5682;SDS011;2864;49.220;8.654;2023-04-24T09:59:53;8.43;;;2.60;;
5682;SDS011;2864;49.220;8.654;2023-04-24T10:02:19;3.50;;;2.20;;
5682;SDS011;2864;49.220;8.654;2023-04-24T10:04:54;3.90;;;2.30;;
5682;SDS011;2864;49.220;8.654;2023-04-24T10:07:21;5.27;;;2.30;;
5682;SDS011;2864;49.220;8.654;2023-04-24T10:09:47;5.23;;;2.33;;
5682;SDS011;2864;49.220;8.654;2023-04-24T10:12:13;2.97;;;2.20;;
5682;SDS011;2864;49.220;8.654;2023-04-24T10:14:40;3.63;;;2.27;;
5682;SDS011;2864;49.220;8.654;2023-04-24T10:17:06;2.93;;;2.20;;
5682;SDS011;2864;49.220;8.654;2023-04-24T10:19:33;3.07;;;2.40;;
5682;SDS011;2864;49.220;8.654;2023-04-24T10:22:00;4.20;;;2.90;;
5682;SDS011;2864;49.220;8.654;2023-04-24T10:24:26;4.20;;;2.27;;
5682;SDS011;2864;49.220;8.654;2023-04-24T10:26:53;2.83;;;2.60;;
5682;SDS011;2864;49.220;8.654;2023-04-24T10:29:19;3.63;;;2.20;;
5682;SDS011;2864;49.220;8.654;2023-04-24T10:31:47;3.03;;;2.60;;
5682;SDS011;2864;49.220;8.654;2023-04-24T10:34:14;4.57;;;2.90;;
5682;SDS011;2864;49.220;8.654;2023-04-24T10:36:48;3.87;;;2.80;;
5682;SDS011;2864;49.220;8.654;2023-04-24T10:39:16;3.93;;;2.90;;
5682;SDS011;2864;49.220;8.654;2023-04-24T10:41:42;4.10;;;3.10;;
5682;SDS011;2864;49.220;8.654;2023-04-24T10:44:13;4.63;;;3.60;;
5682;SDS011;2864;49.220;8.654;2023-04-24T10:46:42;4.90;;;3.47;;
5682;SDS011;2864;49.220;8.654;2023-04-24T10:49:08;5.13;;;3.87;;
5682;SDS011;2864;49.220;8.654;2023-04-24T10:51:44;4.10;;;3.70;;
5682;SDS011;2864;49.220;8.654;2023-04-24T10:54:23;4.33;;;3.67;;
5682;SDS011;2864;49.220;8.654;2023-04-24T10:56:52;4.37;;;3.43;;
5682;SDS011;2864;49.220;8.654;2023-04-24T10:59:25;5.17;;;3.67;;
5682;SDS011;2864;49.220;8.654;2023-04-24T11:01:52;4.37;;;3.50;;
5682;SDS011;2864;49.220;8.654;2023-04-24T11:04:28;4.27;;;3.30;;
5682;SDS011;2864;49.220;8.654;2023-04-24T11:06:55;3.60;;;3.30;;
5682;SDS011;2864;49.220;8.654;2023-04-24T11:09:21;3.40;;;3.10;;
5682;SDS011;2864;49.220;8.654;2023-04-24T11:11:47;5.20;;;3.70;;
5682;SDS011;2864;49.220;8.654;2023-04-24T11:14:16;3.30;;;3.00;;
5682;SDS011;2864;49.220;8.654;2023-04-24T11:16:51;4.07;;;2.93;;
5682;SDS011;2864;49.220;8.654;2023-04-24T11:19:18;3.40;;;2.90;;
5682;SDS011;2864;49.220;8.654;2023-04-24T11:21:46;4.10;;;2.60;;
5682;SDS011;2864;49.220;8.654;2023-04-24T11:27:04;3.77;;;2.90;;
5682;SDS011;2864;49.220;8.654;2023-04-24T11:29:42;3.93;;;2.90;;
5682;SDS011;2864;49.220;8.654;2023-04-24T11:32:19;3.57;;;2.93;;
5682;SDS011;2864;49.220;8.654;2023-04-24T11:34:49;5.07;;;2.93;;
5682;SDS011;2864;49.220;8.654;2023-04-24T11:37:15;4.33;;;3.70;;
5682;SDS011;2864;49.220;8.654;2023-04-24T11:39:41;3.93;;;3.53;;
5682;SDS011;2864;49.220;8.654;2023-04-24T11:42:08;7.07;;;3.60;;
5682;SDS011;2864;49.220;8.654;2023-04-24T11:44:35;3.53;;;3.23;;
5682;SDS011;2864;49.220;8.654;2023-04-24T11:47:05;5.90;;;3.70;;
5682;SDS011;2864;49.220;8.654;2023-04-24T11:49:37;4.70;;;3.33;;
5682;SDS011;2864;49.220;8.654;2023-04-24T11:52:03;7.77;;;3.40;;
5682;SDS011;2864;49.220;8.654;2023-04-24T11:54:30;3.93;;;2.93;;
5682;SDS011;2864;49.220;8.654;2023-04-24T11:56:56;3.90;;;3.13;;
5682;SDS011;2864;49.220;8.654;2023-04-24T11:59:22;3.53;;;3.20;;
5682;SDS011;2864;49.220;8.654;2023-04-24T12:01:48;3.47;;;2.80;;
5682;SDS011;2864;49.220;8.654;2023-04-24T12:04:15;3.83;;;2.70;;
5682;SDS011;2864;49.220;8.654;2023-04-24T12:12:08;3.73;;;2.80;;
5682;SDS011;2864;49.220;8.654;2023-04-24T12:14:47;3.47;;;3.00;;
5682;SDS011;2864;49.220;8.654;2023-04-24T12:17:14;3.37;;;2.90;;
5682;SDS011;2864;49.220;8.654;2023-04-24T12:19:47;4.67;;;2.87;;
5682;SDS011;2864;49.220;8.654;2023-04-24T12:22:13;5.07;;;2.90;;
5682;SDS011;2864;49.220;8.654;2023-04-24T12:24:59;3.23;;;2.87;;
5682;SDS011;2864;49.220;8.654;2023-04-24T12:27:26;6.07;;;3.10;;
5682;SDS011;2864;49.220;8.654;2023-04-24T12:29:58;4.20;;;2.60;;
5682;SDS011;2864;49.220;8.654;2023-04-24T12:32:25;4.77;;;2.70;;
5682;SDS011;2864;49.220;8.654;2023-04-24T12:34:52;4.33;;;3.10;;
5682;SDS011;2864;49.220;8.654;2023-04-24T12:37:18;4.90;;;2.67;;
5682;SDS011;2864;49.220;8.654;2023-04-24T12:39:44;3.00;;;2.70;;
5682;SDS011;2864;49.220;8.654;2023-04-24T12:42:27;3.83;;;2.67;;
5682;SDS011;2864;49.220;8.654;2023-04-24T12:44:58;3.83;;;3.03;;
5682;SDS011;2864;49.220;8.654;2023-04-24T12:47:24;3.03;;;2.53;;
5682;SDS011;2864;49.220;8.654;2023-04-24T12:49:51;5.63;;;2.70;;
5682;SDS011;2864;49.220;8.654;2023-04-24T12:52:17;3.17;;;2.60;;
5682;SDS011;2864;49.220;8.654;2023-04-24T12:54:45;2.90;;;2.60;;
5682;SDS011;2864;49.220;8.654;2023-04-24T12:57:11;3.90;;;2.70;;
5682;SDS011;2864;49.220;8.654;2023-04-24T12:59:37;3.27;;;2.73;;
5682;SDS011;2864;49.220;8.654;2023-04-24T13:02:04;5.30;;;3.17;;
5682;SDS011;2864;49.220;8.654;2023-04-24T13:04:30;3.00;;;2.50;;
5682;SDS011;2864;49.220;8.654;2023-04-24T13:06:56;3.30;;;2.43;;
5682;SDS011;2864;49.220;8.654;2023-04-24T13:09:22;2.50;;;2.30;;
5682;SDS011;2864;49.220;8.654;2023-04-24T13:11:48;2.77;;;2.23;;
5682;SDS011;2864;49.220;8.654;2023-04-24T13:14:14;3.53;;;2.63;;
5682;SDS011;2864;49.220;8.654;2023-04-24T13:16:40;2.90;;;2.37;;
5682;SDS011;2864;49.220;8.654;2023-04-24T13:19:06;5.43;;;2.23;;
5682;SDS011;2864;49.220;8.654;2023-04-24T13:21:32;2.73;;;2.30;;
5682;SDS011;2864;49.220;8.654;2023-04-24T13:23:58;4.20;;;2.40;;
5682;SDS011;2864;49.220;8.654;2023-04-24T13:26:24;3.63;;;2.40;;
5682;SDS011;2864;49.220;8.654;2023-04-24T13:28:50;3.00;;;2.30;;
5682;SDS011;2864;49.220;8.654;2023-04-24T13:31:16;3.03;;;2.20;;
5682;SDS011;2864;49.220;8.654;2023-04-24T13:33:42;3.43;;;2.23;;
5682;SDS011;2864;49.220;8.654;2023-04-24T13:36:08;3.37;;;2.53;;
5682;SDS011;2864;49.220;8.654;2023-04-24T13:38:34;3.03;;;2.50;;
5682;SDS011;2864;49.220;8.654;2023-04-24T13:41:00;2.50;;;2.30;;
5682;SDS011;2864;49.220;8.654;2023-04-24T13:43:26;2.60;;;2.40;;
5682;SDS011;2864;49.220;8.654;2023-04-24T13:45:52;2.77;;;2.33;;
5682;SDS011;2864;49.220;8.654;2023-04-24T13:48:18;2.90;;;2.33;;
5682;SDS011;2864;49.220;8.654;2023-04-24T13:50:44;3.17;;;2.57;;
5682;SDS011;2864;49.220;8.654;2023-04-24T13:53:13;3.77;;;2.20;;
5682;SDS011;2864;49.220;8.654;2023-04-24T13:55:39;3.63;;;2.70;;
5682;SDS011;2864;49.220;8.654;2023-04-24T13:58:05;3.50;;;2.40;;
5682;SDS011;2864;49.220;8.654;2023-04-24T14:00:31;4.67;;;2.80;;
5682;SDS011;2864;49.220;8.654;2023-04-24T14:02:57;3.10;;;2.80;;
5682;SDS011;2864;49.220;8.654;2023-04-24T14:05:23;5.30;;;2.70;;
5682;SDS011;2864;49.220;8.654;2023-04-24T14:07:50;4.10;;;2.50;;
5682;SDS011;2864;49.220;8.654;2023-04-24T14:10:16;4.60;;;2.50;;
5682;SDS011;2864;49.220;8.654;2023-04-24T14:12:42;3.43;;;2.90;;
5682;SDS011;2864;49.220;8.654;2023-04-24T14:15:08;4.03;;;2.50;;
5682;SDS011;2864;49.220;8.654;2023-04-24T14:17:34;3.20;;;2.60;;
5682;SDS011;2864;49.220;8.654;2023-04-24T14:20:00;4.23;;;2.70;;
5682;SDS011;2864;49.220;8.654;2023-04-24T14:22:28;3.50;;;2.33;;
5682;SDS011;2864;49.220;8.654;2023-04-24T14:24:54;4.00;;;2.70;;
5682;SDS011;2864;49.220;8.654;2023-04-24T14:27:20;4.07;;;2.50;;
5682;SDS011;2864;49.220;8.654;2023-04-24T14:29:46;5.73;;;2.50;;
5682;SDS011;2864;49.220;8.654;2023-04-24T14:32:12;4.17;;;2.37;;
5682;SDS011;2864;49.220;8.654;2023-04-24T14:34:40;2.93;;;2.40;;
5682;SDS011;2864;49.220;8.654;2023-04-24T14:37:06;4.17;;;2.60;;
5682;SDS011;2864;49.220;8.654;2023-04-24T14:39:32;3.00;;;2.50;;
5682;SDS011;2864;49.220;8.654;2023-04-24T14:41:58;2.50;;;2.17;;
5682;SDS011;2864;49.220;8.654;2023-04-24T14:44:24;3.70;;;2.60;;
5682;SDS011;2864;49.220;8.654;2023-04-24T14:46:51;5.33;;;2.83;;
5682;SDS011;2864;49.220;8.654;2023-04-24T14:49:16;4.90;;;3.07;;
5682;SDS011;2864;49.220;8.654;2023-04-24T14:51:42;3.87;;;2.60;;
5682;SDS011;2864;49.220;8.654;2023-04-24T14:54:08;4.00;;;2.77;;
5682;SDS011;2864;49.220;8.654;2023-04-24T14:56:34;2.87;;;2.47;;
5682;SDS011;2864;49.220;8.654;2023-04-24T14:59:01;4.73;;;2.77;;
5682;SDS011;2864;49.220;8.654;2023-04-24T15:01:27;4.13;;;3.13;;
5682;SDS011;2864;49.220;8.654;2023-04-24T15:03:53;3.27;;;2.50;;
5682;SDS011;2864;49.220;8.654;2023-04-24T15:06:18;3.93;;;2.57;;
5682;SDS011;2864;49.220;8.654;2023-04-24T15:08:45;3.43;;;2.63;;
5682;SDS011;2864;49.220;8.654;2023-04-24T15:11:11;4.10;;;2.50;;
5682;SDS011;2864;49.220;8.654;2023-04-24T15:13:37;4.17;;;2.70;;
5682;SDS011;2864;49.220;8.654;2023-04-24T15:16:03;5.17;;;2.83;;
5682;SDS011;2864;49.220;8.654;2023-04-24T15:18:29;3.00;;;2.70;;
5682;SDS011;2864;49.220;8.654;2023-04-24T15:20:55;3.87;;;3.20;;
5682;SDS011;2864;49.220;8.654;2023-04-24T15:23:21;2.70;;;2.37;;